sensor_id;sensor_type;location;lat;lon;timestamp;P1;durP1;ratioP1;P2;durP2;ratioP2
53903;SDS011;39812;52.430;16.936;2023-06-24T00:01:14;10.75;;;4.97;;
53903;SDS011;39812;52.430;16.936;2023-06-24T00:03:40;9.27;;;4.55;;
53903;SDS011;39812;52.430;16.936;2023-06-24T00:06:06;6.85;;;4.75;;
53903;SDS011;39812;52.430;16.936;2023-06-24T00:08:32;8.00;;;4.65;;
53903;SDS011;39812;52.430;16.936;2023-06-24T00:11:00;5.35;;;4.15;;
53903;SDS011;39812;52.430;16.936;2023-06-24T00:13:27;7.32;;;5.20;;
53903;SDS011;39812;52.430;16.936;2023-06-24T00:15:54;7.18;;;4.65;;
53903;SDS011;39812;52.430;16.936;2023-06-24T00:18:20;6.78;;;4.40;;
53903;SDS011;39812;52.430;16.936;2023-06-24T00:20:49;6.82;;;4.72;;
53903;SDS011;39812;52.430;16.936;2023-06-24T00:23:15;9.13;;;5.05;;
53903;SDS011;39812;52.430;16.936;2023-06-24T00:25:45;5.93;;;4.35;;
53903;SDS011;39812;52.430;16.936;2023-06-24T00:28:11;5.40;;;4.07;;
53903;SDS011;39812;52.430;16.936;2023-06-24T00:30:36;9.18;;;4.90;;
53903;SDS011;39812;52.430;16.936;2023-06-24T00:33:02;8.00;;;4.70;;
53903;SDS011;39812;52.430;16.936;2023-06-24T00:35:28;7.78;;;4.68;;
53903;SDS011;39812;52.430;16.936;2023-06-24T00:37:53;7.47;;;4.10;;
53903;SDS011;39812;52.430;16.936;2023-06-24T00:40:23;8.55;;;4.65;;
53903;SDS011;39812;52.430;16.936;2023-06-24T00:42:48;7.03;;;4.50;;
53903;SDS011;39812;52.430;16.936;2023-06-24T00:45:15;9.60;;;4.55;;
53903;SDS011;39812;52.430;16.936;2023-06-24T00:47:43;7.68;;;4.68;;
53903;SDS011;39812;52.430;16.936;2023-06-24T00:50:08;6.40;;;4.10;;
53903;SDS011;39812;52.430;16.936;2023-06-24T00:52:37;9.05;;;5.22;;
53903;SDS011;39812;52.430;16.936;2023-06-24T00:55:07;8.90;;;5.28;;
53903;SDS011;39812;52.430;16.936;2023-06-24T00:57:38;7.22;;;4.55;;
53903;SDS011;39812;52.430;16.936;2023-06-24T01:00:26;9.75;;;4.45;;
53903;SDS011;39812;52.430;16.936;2023-06-24T01:02:52;11.45;;;4.60;;
53903;SDS011;39812;52.430;16.936;2023-06-24T01:05:17;8.95;;;4.72;;
53903;SDS011;39812;52.430;16.936;2023-06-24T01:07:48;7.35;;;4.85;;
53903;SDS011;39812;52.430;16.936;2023-06-24T01:10:20;9.40;;;4.30;;
53903;SDS011;39812;52.430;16.936;2023-06-24T01:12:47;7.22;;;4.35;;
53903;SDS011;39812;52.430;16.936;2023-06-24T01:15:13;7.15;;;3.80;;
53903;SDS011;39812;52.430;16.936;2023-06-24T01:18:02;6.18;;;3.70;;
53903;SDS011;39812;52.430;16.936;2023-06-24T01:20:39;5.45;;;3.67;;
53903;SDS011;39812;52.430;16.936;2023-06-24T01:23:22;8.85;;;3.78;;
53903;SDS011;39812;52.430;16.936;2023-06-24T01:25:59;7.03;;;4.18;;
53903;SDS011;39812;52.430;16.936;2023-06-24T01:34:05;5.45;;;3.55;;
53903;SDS011;39812;52.430;16.936;2023-06-24T01:37:03;6.13;;;3.58;;
53903;SDS011;39812;52.430;16.936;2023-06-24T01:39:38;8.85;;;3.45;;
53903;SDS011;39812;52.430;16.936;2023-06-24T01:42:31;5.15;;;3.17;;
53903;SDS011;39812;52.430;16.936;2023-06-24T01:45:00;5.18;;;3.70;;
53903;SDS011;39812;52.430;16.936;2023-06-24T01:47:26;5.80;;;3.53;;
53903;SDS011;39812;52.430;16.936;2023-06-24T01:49:53;6.45;;;3.40;;
53903;SDS011;39812;52.430;16.936;2023-06-24T01:52:23;4.70;;;3.42;;
53903;SDS011;39812;52.430;16.936;2023-06-24T01:54:50;6.55;;;3.20;;
53903;SDS011;39812;52.430;16.936;2023-06-24T01:57:18;8.57;;;4.03;;
53903;SDS011;39812;52.430;16.936;2023-06-24T01:59:46;7.68;;;3.40;;
53903;SDS011;39812;52.430;16.936;2023-06-24T02:02:14;5.30;;;3.90;;
53903;SDS011;39812;52.430;16.936;2023-06-24T02:04:40;10.80;;;3.80;;
53903;SDS011;39812;52.430;16.936;2023-06-24T02:07:07;14.10;;;4.43;;
53903;SDS011;39812;52.430;16.936;2023-06-24T02:09:34;5.97;;;3.97;;
53903;SDS011;39812;52.430;16.936;2023-06-24T02:12:01;4.72;;;3.72;;
53903;SDS011;39812;52.430;16.936;2023-06-24T02:14:28;5.38;;;3.83;;
53903;SDS011;39812;52.430;16.936;2023-06-24T02:16:58;7.07;;;4.35;;
53903;SDS011;39812;52.430;16.936;2023-06-24T02:19:27;6.97;;;4.00;;
53903;SDS011;39812;52.430;16.936;2023-06-24T02:21:55;5.85;;;4.00;;
53903;SDS011;39812;52.430;16.936;2023-06-24T02:24:23;6.28;;;3.90;;
53903;SDS011;39812;52.430;16.936;2023-06-24T02:26:49;7.43;;;4.40;;
53903;SDS011;39812;52.430;16.936;2023-06-24T02:29:16;8.73;;;4.45;;
53903;SDS011;39812;52.430;16.936;2023-06-24T02:31:42;12.52;;;4.95;;
53903;SDS011;39812;52.430;16.936;2023-06-24T02:34:08;8.40;;;4.40;;
53903;SDS011;39812;52.430;16.936;2023-06-24T02:36:34;8.07;;;4.35;;
53903;SDS011;39812;52.430;16.936;2023-06-24T02:39:00;6.78;;;4.50;;
53903;SDS011;39812;52.430;16.936;2023-06-24T02:41:25;9.50;;;4.88;;
53903;SDS011;39812;52.430;16.936;2023-06-24T02:43:51;6.88;;;4.35;;
53903;SDS011;39812;52.430;16.936;2023-06-24T02:46:17;8.52;;;4.22;;
53903;SDS011;39812;52.430;16.936;2023-06-24T02:48:44;6.70;;;4.88;;
53903;SDS011;39812;52.430;16.936;2023-06-24T02:51:11;6.45;;;4.53;;
53903;SDS011;39812;52.430;16.936;2023-06-24T02:53:38;7.40;;;4.65;;
53903;SDS011;39812;52.430;16.936;2023-06-24T02:56:05;10.35;;;4.65;;
53903;SDS011;39812;52.430;16.936;2023-06-24T02:58:32;9.90;;;4.60;;
53903;SDS011;39812;52.430;16.936;2023-06-24T03:01:00;8.90;;;4.75;;
53903;SDS011;39812;52.430;16.936;2023-06-24T03:03:27;8.20;;;4.80;;
53903;SDS011;39812;52.430;16.936;2023-06-24T03:05:53;9.82;;;5.18;;
53903;SDS011;39812;52.430;16.936;2023-06-24T03:08:21;7.13;;;4.72;;
53903;SDS011;39812;52.430;16.936;2023-06-24T03:10:49;6.13;;;4.72;;
53903;SDS011;39812;52.430;16.936;2023-06-24T03:13:15;8.32;;;4.70;;
53903;SDS011;39812;52.430;16.936;2023-06-24T03:15:41;7.75;;;4.78;;
53903;SDS011;39812;52.430;16.936;2023-06-24T03:18:06;7.97;;;5.38;;
53903;SDS011;39812;52.430;16.936;2023-06-24T03:20:32;11.32;;;4.88;;
53903;SDS011;39812;52.430;16.936;2023-06-24T03:23:04;9.13;;;5.45;;
53903;SDS011;39812;52.430;16.936;2023-06-24T03:25:31;9.13;;;5.65;;
53903;SDS011;39812;52.430;16.936;2023-06-24T03:27:57;9.90;;;5.43;;
53903;SDS011;39812;52.430;16.936;2023-06-24T03:30:23;7.10;;;4.95;;
53903;SDS011;39812;52.430;16.936;2023-06-24T03:32:49;8.82;;;4.78;;
53903;SDS011;39812;52.430;16.936;2023-06-24T03:35:14;9.20;;;5.53;;
53903;SDS011;39812;52.430;16.936;2023-06-24T03:37:40;8.05;;;4.95;;
53903;SDS011;39812;52.430;16.936;2023-06-24T03:40:06;6.88;;;4.93;;
53903;SDS011;39812;52.430;16.936;2023-06-24T03:42:33;9.70;;;5.18;;
53903;SDS011;39812;52.430;16.936;2023-06-24T03:44:58;10.50;;;5.97;;
53903;SDS011;39812;52.430;16.936;2023-06-24T03:47:24;9.52;;;5.68;;
53903;SDS011;39812;52.430;16.936;2023-06-24T03:49:50;9.60;;;5.40;;
53903;SDS011;39812;52.430;16.936;2023-06-24T03:52:16;8.55;;;5.18;;
53903;SDS011;39812;52.430;16.936;2023-06-24T03:54:42;10.32;;;5.57;;
53903;SDS011;39812;52.430;16.936;2023-06-24T03:57:08;8.77;;;5.07;;
53903;SDS011;39812;52.430;16.936;2023-06-24T03:59:33;11.75;;;5.78;;
53903;SDS011;39812;52.430;16.936;2023-06-24T04:02:00;9.63;;;5.82;;
53903;SDS011;39812;52.430;16.936;2023-06-24T04:04:25;10.68;;;6.05;;
53903;SDS011;39812;52.430;16.936;2023-06-24T04:06:51;7.55;;;5.25;;
53903;SDS011;39812;52.430;16.936;2023-06-24T04:09:17;9.80;;;5.20;;
53903;SDS011;39812;52.430;16.936;2023-06-24T04:11:42;9.32;;;5.10;;
53903;SDS011;39812;52.430;16.936;2023-06-24T04:14:08;9.85;;;5.25;;
53903;SDS011;39812;52.430;16.936;2023-06-24T04:16:34;9.38;;;5.40;;
53903;SDS011;39812;52.430;16.936;2023-06-24T04:19:00;7.53;;;5.28;;
53903;SDS011;39812;52.430;16.936;2023-06-24T04:21:26;10.10;;;5.25;;
53903;SDS011;39812;52.430;16.936;2023-06-24T04:23:52;8.90;;;5.53;;
53903;SDS011;39812;52.430;16.936;2023-06-24T04:26:18;10.05;;;5.55;;
53903;SDS011;39812;52.430;16.936;2023-06-24T04:28:44;9.30;;;5.20;;
53903;SDS011;39812;52.430;16.936;2023-06-24T04:31:09;8.43;;;5.15;;
53903;SDS011;39812;52.430;16.936;2023-06-24T04:33:35;10.13;;;4.93;;
53903;SDS011;39812;52.430;16.936;2023-06-24T04:36:00;7.13;;;4.88;;
53903;SDS011;39812;52.430;16.936;2023-06-24T04:38:26;8.13;;;4.90;;
53903;SDS011;39812;52.430;16.936;2023-06-24T04:40:52;11.40;;;5.47;;
53903;SDS011;39812;52.430;16.936;2023-06-24T04:43:18;9.00;;;5.18;;
53903;SDS011;39812;52.430;16.936;2023-06-24T04:45:43;9.95;;;5.40;;
53903;SDS011;39812;52.430;16.936;2023-06-24T04:48:09;6.40;;;5.07;;
53903;SDS011;39812;52.430;16.936;2023-06-24T04:50:34;9.60;;;4.97;;
53903;SDS011;39812;52.430;16.936;2023-06-24T04:53:00;8.40;;;5.00;;
53903;SDS011;39812;52.430;16.936;2023-06-24T04:55:27;9.70;;;5.15;;
53903;SDS011;39812;52.430;16.936;2023-06-24T04:57:55;10.48;;;5.63;;
53903;SDS011;39812;52.430;16.936;2023-06-24T05:00:20;8.38;;;5.22;;
53903;SDS011;39812;52.430;16.936;2023-06-24T05:02:49;7.47;;;4.60;;
53903;SDS011;39812;52.430;16.936;2023-06-24T05:05:15;10.75;;;4.80;;
53903;SDS011;39812;52.430;16.936;2023-06-24T05:07:40;6.40;;;4.70;;
53903;SDS011;39812;52.430;16.936;2023-06-24T05:10:06;8.98;;;5.10;;
53903;SDS011;39812;52.430;16.936;2023-06-24T05:12:32;11.63;;;5.22;;
53903;SDS011;39812;52.430;16.936;2023-06-24T05:14:58;12.48;;;5.45;;
53903;SDS011;39812;52.430;16.936;2023-06-24T05:17:23;9.75;;;4.80;;
53903;SDS011;39812;52.430;16.936;2023-06-24T05:19:49;9.65;;;5.65;;
53903;SDS011;39812;52.430;16.936;2023-06-24T05:22:14;8.07;;;5.15;;
53903;SDS011;39812;52.430;16.936;2023-06-24T05:24:40;9.38;;;6.15;;
53903;SDS011;39812;52.430;16.936;2023-06-24T05:27:06;9.73;;;4.65;;
53903;SDS011;39812;52.430;16.936;2023-06-24T05:29:35;11.35;;;5.70;;
53903;SDS011;39812;52.430;16.936;2023-06-24T05:32:01;10.65;;;5.85;;
53903;SDS011;39812;52.430;16.936;2023-06-24T05:34:28;9.73;;;4.82;;
53903;SDS011;39812;52.430;16.936;2023-06-24T05:36:55;8.00;;;4.75;;
53903;SDS011;39812;52.430;16.936;2023-06-24T05:39:20;9.30;;;5.18;;
53903;SDS011;39812;52.430;16.936;2023-06-24T05:41:46;9.15;;;5.43;;
53903;SDS011;39812;52.430;16.936;2023-06-24T05:44:13;8.32;;;4.55;;
53903;SDS011;39812;52.430;16.936;2023-06-24T05:46:39;6.28;;;4.38;;
53903;SDS011;39812;52.430;16.936;2023-06-24T05:49:05;7.70;;;4.60;;
53903;SDS011;39812;52.430;16.936;2023-06-24T05:51:31;8.40;;;4.68;;
53903;SDS011;39812;52.430;16.936;2023-06-24T05:53:56;7.38;;;4.78;;
53903;SDS011;39812;52.430;16.936;2023-06-24T05:56:22;10.43;;;4.70;;
53903;SDS011;39812;52.430;16.936;2023-06-24T05:58:48;8.10;;;4.40;;
53903;SDS011;39812;52.430;16.936;2023-06-24T06:01:14;10.70;;;4.93;;
53903;SDS011;39812;52.430;16.936;2023-06-24T06:03:40;7.85;;;4.25;;
53903;SDS011;39812;52.430;16.936;2023-06-24T06:06:05;10.13;;;5.10;;
53903;SDS011;39812;52.430;16.936;2023-06-24T06:08:32;10.57;;;4.38;;
53903;SDS011;39812;52.430;16.936;2023-06-24T06:10:58;10.07;;;4.80;;
53903;SDS011;39812;52.430;16.936;2023-06-24T06:13:24;9.18;;;4.35;;
53903;SDS011;39812;52.430;16.936;2023-06-24T06:15:49;8.77;;;4.63;;
53903;SDS011;39812;52.430;16.936;2023-06-24T06:18:15;7.15;;;3.95;;
53903;SDS011;39812;52.430;16.936;2023-06-24T06:20:40;8.07;;;4.63;;
53903;SDS011;39812;52.430;16.936;2023-06-24T06:23:06;8.43;;;5.03;;
53903;SDS011;39812;52.430;16.936;2023-06-24T06:25:32;8.00;;;4.40;;
53903;SDS011;39812;52.430;16.936;2023-06-24T06:27:58;7.85;;;4.90;;
53903;SDS011;39812;52.430;16.936;2023-06-24T06:30:23;7.80;;;4.85;;
53903;SDS011;39812;52.430;16.936;2023-06-24T06:32:49;10.82;;;4.95;;
53903;SDS011;39812;52.430;16.936;2023-06-24T06:35:15;7.47;;;4.25;;
53903;SDS011;39812;52.430;16.936;2023-06-24T06:37:40;10.38;;;4.35;;
53903;SDS011;39812;52.430;16.936;2023-06-24T06:40:06;9.18;;;4.40;;
53903;SDS011;39812;52.430;16.936;2023-06-24T06:42:32;7.50;;;4.15;;
53903;SDS011;39812;52.430;16.936;2023-06-24T06:44:58;5.15;;;3.85;;
53903;SDS011;39812;52.430;16.936;2023-06-24T06:47:23;8.23;;;4.72;;
53903;SDS011;39812;52.430;16.936;2023-06-24T06:49:49;7.55;;;4.90;;
53903;SDS011;39812;52.430;16.936;2023-06-24T06:52:15;7.38;;;4.35;;
53903;SDS011;39812;52.430;16.936;2023-06-24T06:54:41;6.70;;;4.35;;
53903;SDS011;39812;52.430;16.936;2023-06-24T06:57:06;8.85;;;4.53;;
53903;SDS011;39812;52.430;16.936;2023-06-24T06:59:34;9.07;;;5.00;;
53903;SDS011;39812;52.430;16.936;2023-06-24T07:01:59;9.00;;;4.25;;
53903;SDS011;39812;52.430;16.936;2023-06-24T07:04:25;6.50;;;4.47;;
53903;SDS011;39812;52.430;16.936;2023-06-24T07:06:50;6.43;;;4.30;;
53903;SDS011;39812;52.430;16.936;2023-06-24T07:09:16;7.22;;;4.35;;
53903;SDS011;39812;52.430;16.936;2023-06-24T07:11:42;8.23;;;4.55;;
53903;SDS011;39812;52.430;16.936;2023-06-24T07:14:08;7.28;;;4.43;;
53903;SDS011;39812;52.430;16.936;2023-06-24T07:16:34;6.57;;;4.35;;
53903;SDS011;39812;52.430;16.936;2023-06-24T07:18:59;9.75;;;4.80;;
53903;SDS011;39812;52.430;16.936;2023-06-24T07:21:25;7.68;;;4.45;;
53903;SDS011;39812;52.430;16.936;2023-06-24T07:23:50;7.35;;;4.47;;
53903;SDS011;39812;52.430;16.936;2023-06-24T07:26:16;6.30;;;4.38;;
53903;SDS011;39812;52.430;16.936;2023-06-24T07:28:41;8.65;;;4.82;;
53903;SDS011;39812;52.430;16.936;2023-06-24T07:31:07;6.70;;;4.15;;
53903;SDS011;39812;52.430;16.936;2023-06-24T07:33:33;8.80;;;4.70;;
53903;SDS011;39812;52.430;16.936;2023-06-24T07:35:59;7.40;;;4.68;;
53903;SDS011;39812;52.430;16.936;2023-06-24T07:38:24;5.97;;;4.65;;
53903;SDS011;39812;52.430;16.936;2023-06-24T07:40:50;6.20;;;4.78;;
53903;SDS011;39812;52.430;16.936;2023-06-24T07:43:15;8.45;;;4.35;;
53903;SDS011;39812;52.430;16.936;2023-06-24T07:45:41;10.88;;;5.68;;
53903;SDS011;39812;52.430;16.936;2023-06-24T07:48:07;6.93;;;4.60;;
53903;SDS011;39812;52.430;16.936;2023-06-24T07:50:33;7.68;;;4.63;;
53903;SDS011;39812;52.430;16.936;2023-06-24T07:53:00;7.18;;;4.45;;
53903;SDS011;39812;52.430;16.936;2023-06-24T07:55:25;8.50;;;5.00;;
53903;SDS011;39812;52.430;16.936;2023-06-24T07:57:51;11.25;;;5.63;;
53903;SDS011;39812;52.430;16.936;2023-06-24T08:00:16;8.95;;;4.82;;
53903;SDS011;39812;52.430;16.936;2023-06-24T08:02:42;6.70;;;4.38;;
53903;SDS011;39812;52.430;16.936;2023-06-24T08:05:08;7.93;;;4.50;;
53903;SDS011;39812;52.430;16.936;2023-06-24T08:07:34;8.07;;;4.20;;
53903;SDS011;39812;52.430;16.936;2023-06-24T08:10:00;7.78;;;4.50;;
53903;SDS011;39812;52.430;16.936;2023-06-24T08:12:26;6.80;;;4.28;;
53903;SDS011;39812;52.430;16.936;2023-06-24T08:14:52;8.15;;;3.97;;
53903;SDS011;39812;52.430;16.936;2023-06-24T08:17:17;5.53;;;3.72;;
53903;SDS011;39812;52.430;16.936;2023-06-24T08:19:43;5.90;;;3.60;;
53903;SDS011;39812;52.430;16.936;2023-06-24T08:22:08;7.88;;;4.15;;
53903;SDS011;39812;52.430;16.936;2023-06-24T08:24:34;5.75;;;3.90;;
53903;SDS011;39812;52.430;16.936;2023-06-24T08:27:00;8.50;;;4.38;;
53903;SDS011;39812;52.430;16.936;2023-06-24T08:29:25;7.38;;;4.90;;
53903;SDS011;39812;52.430;16.936;2023-06-24T08:31:51;6.10;;;3.53;;
53903;SDS011;39812;52.430;16.936;2023-06-24T08:34:16;5.10;;;3.85;;
53903;SDS011;39812;52.430;16.936;2023-06-24T08:36:42;4.50;;;3.30;;
53903;SDS011;39812;52.430;16.936;2023-06-24T08:39:07;6.57;;;3.60;;
53903;SDS011;39812;52.430;16.936;2023-06-24T08:41:33;4.82;;;3.15;;
53903;SDS011;39812;52.430;16.936;2023-06-24T08:43:59;5.28;;;3.67;;
53903;SDS011;39812;52.430;16.936;2023-06-24T08:46:25;4.72;;;3.20;;
53903;SDS011;39812;52.430;16.936;2023-06-24T08:48:54;9.45;;;3.53;;
53903;SDS011;39812;52.430;16.936;2023-06-24T08:51:27;6.47;;;3.90;;
53903;SDS011;39812;52.430;16.936;2023-06-24T08:53:56;9.88;;;3.47;;
53903;SDS011;39812;52.430;16.936;2023-06-24T08:56:23;5.75;;;3.78;;
53903;SDS011;39812;52.430;16.936;2023-06-24T08:58:49;5.70;;;4.05;;
53903;SDS011;39812;52.430;16.936;2023-06-24T09:01:15;7.03;;;3.55;;
53903;SDS011;39812;52.430;16.936;2023-06-24T09:03:42;6.32;;;3.63;;
53903;SDS011;39812;52.430;16.936;2023-06-24T09:06:07;6.75;;;3.53;;
53903;SDS011;39812;52.430;16.936;2023-06-24T09:08:33;5.57;;;4.03;;
53903;SDS011;39812;52.430;16.936;2023-06-24T09:11:00;7.22;;;3.80;;
53903;SDS011;39812;52.430;16.936;2023-06-24T09:13:35;7.13;;;3.53;;
53903;SDS011;39812;52.430;16.936;2023-06-24T09:16:11;5.00;;;3.70;;
53903;SDS011;39812;52.430;16.936;2023-06-24T09:18:39;5.22;;;3.47;;
53903;SDS011;39812;52.430;16.936;2023-06-24T09:21:04;7.47;;;3.63;;
53903;SDS011;39812;52.430;16.936;2023-06-24T09:23:32;6.45;;;4.15;;
53903;SDS011;39812;52.430;16.936;2023-06-24T09:26:01;7.05;;;3.40;;
53903;SDS011;39812;52.430;16.936;2023-06-24T09:28:27;6.25;;;3.72;;
53903;SDS011;39812;52.430;16.936;2023-06-24T09:33:34;6.22;;;3.25;;
53903;SDS011;39812;52.430;16.936;2023-06-24T09:36:03;4.80;;;3.20;;
53903;SDS011;39812;52.430;16.936;2023-06-24T09:38:36;5.57;;;3.53;;
53903;SDS011;39812;52.430;16.936;2023-06-24T09:41:03;5.93;;;3.00;;
53903;SDS011;39812;52.430;16.936;2023-06-24T09:43:30;5.45;;;3.30;;
53903;SDS011;39812;52.430;16.936;2023-06-24T09:45:58;5.68;;;3.17;;
53903;SDS011;39812;52.430;16.936;2023-06-24T09:48:25;5.95;;;3.38;;
53903;SDS011;39812;52.430;16.936;2023-06-24T09:50:51;6.30;;;3.60;;
53903;SDS011;39812;52.430;16.936;2023-06-24T09:53:17;9.38;;;3.20;;
53903;SDS011;39812;52.430;16.936;2023-06-24T09:55:43;4.10;;;2.97;;
53903;SDS011;39812;52.430;16.936;2023-06-24T09:58:12;6.05;;;3.13;;
53903;SDS011;39812;52.430;16.936;2023-06-24T10:00:41;4.63;;;3.03;;
53903;SDS011;39812;52.430;16.936;2023-06-24T10:03:07;4.07;;;2.80;;
53903;SDS011;39812;52.430;16.936;2023-06-24T10:05:33;5.15;;;3.00;;
53903;SDS011;39812;52.430;16.936;2023-06-24T10:07:59;3.95;;;2.63;;
53903;SDS011;39812;52.430;16.936;2023-06-24T10:10:24;4.32;;;2.95;;
53903;SDS011;39812;52.430;16.936;2023-06-24T10:12:50;4.78;;;2.95;;
53903;SDS011;39812;52.430;16.936;2023-06-24T10:15:16;4.70;;;3.17;;
53903;SDS011;39812;52.430;16.936;2023-06-24T10:17:41;4.53;;;3.40;;
53903;SDS011;39812;52.430;16.936;2023-06-24T10:20:07;5.38;;;3.38;;
53903;SDS011;39812;52.430;16.936;2023-06-24T10:22:33;8.57;;;3.38;;
53903;SDS011;39812;52.430;16.936;2023-06-24T10:25:01;5.85;;;3.28;;
53903;SDS011;39812;52.430;16.936;2023-06-24T10:27:30;4.65;;;2.70;;
53903;SDS011;39812;52.430;16.936;2023-06-24T10:30:04;4.43;;;2.85;;
53903;SDS011;39812;52.430;16.936;2023-06-24T10:32:39;7.18;;;2.92;;
53903;SDS011;39812;52.430;16.936;2023-06-24T10:35:25;4.60;;;3.03;;
53903;SDS011;39812;52.430;16.936;2023-06-24T10:38:00;5.15;;;2.75;;
53903;SDS011;39812;52.430;16.936;2023-06-24T10:40:36;7.30;;;3.47;;
53903;SDS011;39812;52.430;16.936;2023-06-24T10:45:51;4.53;;;2.90;;
53903;SDS011;39812;52.430;16.936;2023-06-24T10:48:17;7.72;;;2.60;;
53903;SDS011;39812;52.430;16.936;2023-06-24T10:50:46;4.15;;;2.97;;
53903;SDS011;39812;52.430;16.936;2023-06-24T10:53:13;3.67;;;2.50;;
53903;SDS011;39812;52.430;16.936;2023-06-24T10:55:38;5.55;;;3.20;;
53903;SDS011;39812;52.430;16.936;2023-06-24T10:58:08;6.50;;;3.15;;
53903;SDS011;39812;52.430;16.936;2023-06-24T11:00:38;7.95;;;3.42;;
53903;SDS011;39812;52.430;16.936;2023-06-24T11:03:11;4.60;;;3.10;;
53903;SDS011;39812;52.430;16.936;2023-06-24T11:05:41;4.53;;;3.00;;
53903;SDS011;39812;52.430;16.936;2023-06-24T11:08:08;4.32;;;3.00;;
53903;SDS011;39812;52.430;16.936;2023-06-24T11:13:10;4.47;;;2.85;;
53903;SDS011;39812;52.430;16.936;2023-06-24T11:15:36;4.40;;;2.70;;
53903;SDS011;39812;52.430;16.936;2023-06-24T11:18:04;4.18;;;2.90;;
53903;SDS011;39812;52.430;16.936;2023-06-24T11:20:30;10.10;;;3.10;;
53903;SDS011;39812;52.430;16.936;2023-06-24T11:22:55;8.48;;;3.40;;
53903;SDS011;39812;52.430;16.936;2023-06-24T11:25:21;4.38;;;2.92;;
53903;SDS011;39812;52.430;16.936;2023-06-24T11:27:47;5.72;;;2.75;;
53903;SDS011;39812;52.430;16.936;2023-06-24T11:30:15;5.78;;;3.00;;
53903;SDS011;39812;52.430;16.936;2023-06-24T11:32:42;3.55;;;2.80;;
53903;SDS011;39812;52.430;16.936;2023-06-24T11:35:09;5.20;;;2.90;;
53903;SDS011;39812;52.430;16.936;2023-06-24T11:37:37;4.35;;;2.97;;
53903;SDS011;39812;52.430;16.936;2023-06-24T11:40:06;3.35;;;2.50;;
53903;SDS011;39812;52.430;16.936;2023-06-24T11:42:36;4.95;;;2.75;;
53903;SDS011;39812;52.430;16.936;2023-06-24T11:45:05;6.18;;;3.50;;
53903;SDS011;39812;52.430;16.936;2023-06-24T11:47:33;7.22;;;3.30;;
53903;SDS011;39812;52.430;16.936;2023-06-24T11:49:59;6.47;;;3.25;;
53903;SDS011;39812;52.430;16.936;2023-06-24T11:52:44;6.00;;;2.70;;
53903;SDS011;39812;52.430;16.936;2023-06-24T11:57:51;4.75;;;2.45;;
53903;SDS011;39812;52.430;16.936;2023-06-24T12:00:19;4.00;;;2.60;;
53903;SDS011;39812;52.430;16.936;2023-06-24T12:02:53;4.10;;;3.00;;
53903;SDS011;39812;52.430;16.936;2023-06-24T12:05:24;4.55;;;2.40;;
53903;SDS011;39812;52.430;16.936;2023-06-24T12:08:14;5.03;;;2.65;;
53903;SDS011;39812;52.430;16.936;2023-06-24T12:10:40;4.95;;;2.67;;
53903;SDS011;39812;52.430;16.936;2023-06-24T12:13:06;6.38;;;2.72;;
53903;SDS011;39812;52.430;16.936;2023-06-24T12:15:33;6.90;;;2.90;;
53903;SDS011;39812;52.430;16.936;2023-06-24T12:17:59;4.50;;;2.90;;
53903;SDS011;39812;52.430;16.936;2023-06-24T12:20:28;4.25;;;2.83;;
53903;SDS011;39812;52.430;16.936;2023-06-24T12:22:55;6.15;;;2.70;;
53903;SDS011;39812;52.430;16.936;2023-06-24T12:25:20;4.13;;;2.35;;
53903;SDS011;39812;52.430;16.936;2023-06-24T12:27:46;4.05;;;2.47;;
53903;SDS011;39812;52.430;16.936;2023-06-24T12:30:12;4.97;;;3.00;;
53903;SDS011;39812;52.430;16.936;2023-06-24T12:32:38;4.88;;;2.83;;
53903;SDS011;39812;52.430;16.936;2023-06-24T12:35:04;3.70;;;2.67;;
53903;SDS011;39812;52.430;16.936;2023-06-24T12:37:31;3.35;;;2.72;;
53903;SDS011;39812;52.430;16.936;2023-06-24T12:39:58;4.70;;;2.90;;
53903;SDS011;39812;52.430;16.936;2023-06-24T12:42:24;5.50;;;2.80;;
53903;SDS011;39812;52.430;16.936;2023-06-24T12:44:50;6.57;;;2.35;;
53903;SDS011;39812;52.430;16.936;2023-06-24T12:47:16;4.63;;;2.70;;
53903;SDS011;39812;52.430;16.936;2023-06-24T12:49:41;4.30;;;3.05;;
53903;SDS011;39812;52.430;16.936;2023-06-24T12:52:07;4.10;;;2.72;;
53903;SDS011;39812;52.430;16.936;2023-06-24T12:54:33;3.65;;;2.72;;
53903;SDS011;39812;52.430;16.936;2023-06-24T12:56:58;4.95;;;2.72;;
53903;SDS011;39812;52.430;16.936;2023-06-24T12:59:24;5.43;;;2.83;;
53903;SDS011;39812;52.430;16.936;2023-06-24T13:01:50;3.60;;;2.70;;
53903;SDS011;39812;52.430;16.936;2023-06-24T13:04:16;3.55;;;2.60;;
53903;SDS011;39812;52.430;16.936;2023-06-24T13:06:44;3.65;;;2.65;;
53903;SDS011;39812;52.430;16.936;2023-06-24T13:09:10;4.60;;;2.85;;
53903;SDS011;39812;52.430;16.936;2023-06-24T13:11:36;6.90;;;2.85;;
53903;SDS011;39812;52.430;16.936;2023-06-24T13:14:02;4.20;;;2.70;;
53903;SDS011;39812;52.430;16.936;2023-06-24T13:16:28;4.57;;;3.20;;
53903;SDS011;39812;52.430;16.936;2023-06-24T13:18:54;4.63;;;2.70;;
53903;SDS011;39812;52.430;16.936;2023-06-24T13:21:19;4.38;;;2.55;;
53903;SDS011;39812;52.430;16.936;2023-06-24T13:23:45;5.32;;;2.55;;
53903;SDS011;39812;52.430;16.936;2023-06-24T13:26:11;4.65;;;2.78;;
53903;SDS011;39812;52.430;16.936;2023-06-24T13:28:37;4.97;;;2.50;;
53903;SDS011;39812;52.430;16.936;2023-06-24T13:31:02;3.50;;;2.80;;
53903;SDS011;39812;52.430;16.936;2023-06-24T13:33:28;4.68;;;2.80;;
53903;SDS011;39812;52.430;16.936;2023-06-24T13:35:54;6.88;;;3.25;;
53903;SDS011;39812;52.430;16.936;2023-06-24T13:38:21;4.07;;;3.00;;
53903;SDS011;39812;52.430;16.936;2023-06-24T13:40:47;3.67;;;2.88;;
53903;SDS011;39812;52.430;16.936;2023-06-24T13:43:12;4.75;;;3.20;;
53903;SDS011;39812;52.430;16.936;2023-06-24T13:45:38;4.82;;;3.30;;
53903;SDS011;39812;52.430;16.936;2023-06-24T13:48:04;4.47;;;3.05;;
53903;SDS011;39812;52.430;16.936;2023-06-24T13:50:29;5.63;;;3.10;;
53903;SDS011;39812;52.430;16.936;2023-06-24T13:52:55;5.95;;;3.17;;
53903;SDS011;39812;52.430;16.936;2023-06-24T13:55:21;4.30;;;2.70;;
53903;SDS011;39812;52.430;16.936;2023-06-24T13:57:47;5.63;;;3.10;;
53903;SDS011;39812;52.430;16.936;2023-06-24T14:00:12;5.32;;;3.03;;
53903;SDS011;39812;52.430;16.936;2023-06-24T14:02:39;3.65;;;2.97;;
53903;SDS011;39812;52.430;16.936;2023-06-24T14:05:06;5.72;;;3.40;;
53903;SDS011;39812;52.430;16.936;2023-06-24T14:07:32;4.85;;;3.67;;
53903;SDS011;39812;52.430;16.936;2023-06-24T14:09:58;5.85;;;3.10;;
53903;SDS011;39812;52.430;16.936;2023-06-24T14:12:24;4.45;;;3.17;;
53903;SDS011;39812;52.430;16.936;2023-06-24T14:14:50;5.47;;;3.70;;
53903;SDS011;39812;52.430;16.936;2023-06-24T14:17:16;4.50;;;3.15;;
53903;SDS011;39812;52.430;16.936;2023-06-24T14:19:42;5.15;;;3.17;;
53903;SDS011;39812;52.430;16.936;2023-06-24T14:22:08;5.10;;;3.53;;
53903;SDS011;39812;52.430;16.936;2023-06-24T14:24:34;5.63;;;3.40;;
53903;SDS011;39812;52.430;16.936;2023-06-24T14:27:03;5.78;;;3.42;;
53903;SDS011;39812;52.430;16.936;2023-06-24T14:29:30;4.03;;;3.15;;
53903;SDS011;39812;52.430;16.936;2023-06-24T14:31:55;9.25;;;3.30;;
53903;SDS011;39812;52.430;16.936;2023-06-24T14:34:21;5.15;;;3.53;;
53903;SDS011;39812;52.430;16.936;2023-06-24T14:36:47;5.43;;;3.22;;
53903;SDS011;39812;52.430;16.936;2023-06-24T14:39:14;6.05;;;3.63;;
53903;SDS011;39812;52.430;16.936;2023-06-24T14:41:43;5.50;;;3.38;;
53903;SDS011;39812;52.430;16.936;2023-06-24T14:44:09;5.45;;;2.90;;
53903;SDS011;39812;52.430;16.936;2023-06-24T14:46:35;4.20;;;3.10;;
53903;SDS011;39812;52.430;16.936;2023-06-24T14:49:01;4.22;;;3.03;;